Time;durP1;ratioP1;P1;durP2;ratioP2;P2;SDS_P1;SDS_P2;PMS_P1;PMS_P2;Temp;Humidity;BMP_temperature;BMP_pressure;BME280_temperature;BME280_humidity;BME280_pressure;Samples;Min_cycle;Max_cycle;Signal;HPM_P1;HPM_P2
2023/01/16 00:00:53;;;;;;;1.90;1.50;;;16.00;65.40;16.80;98994.00;;;;5029844;28;20730;-45
2023/01/16 00:03:19;;;;;;;1.60;1.50;;;15.90;65.20;16.80;98992.00;;;;5029593;28;20155;-45
2023/01/16 00:05:45;;;;;;;3.43;1.70;;;15.90;65.40;16.80;98990.00;;;;5029696;28;20675;-46
2023/01/16 00:08:11;;;;;;;2.10;1.60;;;15.90;65.30;16.80;98983.00;;;;5029981;28;20198;-48
2023/01/16 00:10:36;;;;;;;2.30;1.53;;;15.90;65.30;16.80;98983.00;;;;5030066;28;20258;-46
2023/01/16 00:13:02;;;;;;;2.40;1.67;;;15.90;65.30;16.80;98979.00;;;;5029211;28;20620;-47
2023/01/16 00:15:28;;;;;;;1.60;1.50;;;15.90;65.30;16.80;98972.00;;;;5029867;28;20254;-46
2023/01/16 00:17:54;;;;;;;2.50;1.67;;;15.90;65.30;16.80;98964.00;;;;5030015;28;20203;-46
2023/01/16 00:20:19;;;;;;;1.70;1.50;;;15.90;65.30;16.70;98958.00;;;;5029122;28;20723;-46
2023/01/16 00:22:45;;;;;;;2.33;1.70;;;15.90;65.30;16.70;98959.00;;;;5029532;28;20175;-46
2023/01/16 00:25:11;;;;;;;1.87;1.50;;;15.80;65.20;16.70;98959.00;;;;5029658;28;20195;-45
2023/01/16 00:27:37;;;;;;;1.97;1.43;;;15.80;65.20;16.70;98966.00;;;;5029468;28;20687;-47
2023/01/16 00:30:04;;;;;;;2.80;1.47;;;15.80;65.30;16.70;98957.00;;;;5029916;28;20822;-47
2023/01/16 00:32:29;;;;;;;1.67;1.40;;;15.80;65.30;16.70;98952.00;;;;5027266;28;20167;-46
2023/01/16 00:34:55;;;;;;;1.73;1.50;;;15.80;65.30;16.70;98939.00;;;;5029746;28;20677;-46
2023/01/16 00:37:21;;;;;;;1.73;1.53;;;15.80;65.40;16.70;98937.00;;;;5028965;28;20218;-46
2023/01/16 00:39:47;;;;;;;1.60;1.50;;;15.80;65.50;16.70;98930.00;;;;5029502;28;20829;-46
2023/01/16 00:42:12;;;;;;;2.33;1.57;;;15.70;65.40;16.60;98932.00;;;;5029108;28;20177;-47
2023/01/16 00:44:38;;;;;;;1.50;1.40;;;15.70;65.50;16.60;98929.00;;;;5029416;28;20170;-46
2023/01/16 00:47:04;;;;;;;2.57;1.70;;;15.70;65.50;16.60;98918.00;;;;5028956;28;20206;-47
2023/01/16 00:49:30;;;;;;;2.23;1.50;;;15.70;65.60;16.60;98923.00;;;;5029336;28;20294;-46
2023/01/16 00:51:56;;;;;;;1.43;1.33;;;15.70;65.60;16.60;98932.00;;;;5028580;28;20227;-46
2023/01/16 00:54:22;;;;;;;1.73;1.50;;;15.70;65.60;16.60;98921.00;;;;5029017;28;20173;-46
2023/01/16 00:56:47;;;;;;;1.57;1.47;;;15.70;65.60;16.60;98922.00;;;;5029139;28;20222;-46
2023/01/16 00:59:13;;;;;;;3.67;1.77;;;15.70;65.60;16.60;98918.00;;;;5029019;28;20685;-47
2023/01/16 01:01:39;;;;;;;2.87;1.60;;;15.60;65.50;16.50;98914.00;;;;5031004;28;20183;-46
2023/01/16 01:04:04;;;;;;;1.27;1.17;;;15.60;65.50;16.50;98907.00;;;;5040090;28;20268;-45
2023/01/16 01:06:30;;;;;;;1.70;1.43;;;15.60;65.50;16.50;98908.00;;;;5033557;28;20229;-46
2023/01/16 01:08:56;;;;;;;1.80;1.50;;;15.60;65.50;16.50;98907.00;;;;5029580;28;20236;-45
2023/01/16 01:11:22;;;;;;;1.20;1.10;;;15.60;65.50;16.50;98889.00;;;;5027451;28;20182;-46
2023/01/16 01:13:47;;;;;;;1.40;1.30;;;15.60;65.50;16.50;98893.00;;;;5028769;28;20679;-46
2023/01/16 01:16:14;;;;;;;1.87;1.50;;;15.60;65.60;16.50;98887.00;;;;5029033;28;20270;-45
2023/01/16 01:18:40;;;;;;;1.83;1.50;;;15.60;65.60;16.50;98822.00;;;;5028702;28;20171;-46
2023/01/16 01:21:06;;;;;;;1.50;1.30;;;15.60;65.60;16.50;98831.00;;;;5028682;28;20262;-45
2023/01/16 01:23:31;;;;;;;1.50;1.10;;;15.60;65.60;16.50;98881.00;;;;5028356;28;20202;-46
2023/01/16 01:25:57;;;;;;;1.20;1.10;;;15.60;65.60;16.50;98869.00;;;;5029287;28;20213;-47
2023/01/16 01:28:23;;;;;;;1.50;1.40;;;15.60;65.60;16.50;98865.00;;;;5028441;28;20187;-46
2023/01/16 01:30:49;;;;;;;1.63;1.27;;;15.50;65.60;16.40;98854.00;;;;5028701;28;20159;-46
2023/01/16 01:33:14;;;;;;;1.30;1.20;;;15.50;65.60;16.40;98855.00;;;;5030709;28;20178;-45
2023/01/16 01:35:40;;;;;;;1.70;1.30;;;15.60;65.60;16.40;98847.00;;;;5032903;28;20171;-46
2023/01/16 01:38:06;;;;;;;1.37;1.27;;;15.60;65.60;16.40;98841.00;;;;5031453;28;20187;-46
2023/01/16 01:40:32;;;;;;;1.50;1.40;;;15.50;65.60;16.40;98831.00;;;;5032510;28;20167;-49
2023/01/16 01:42:58;;;;;;;1.83;1.23;;;15.50;65.60;16.40;98822.00;;;;5032000;28;20171;-46
2023/01/16 01:45:26;;;;;;;1.50;1.20;;;15.50;65.60;16.40;98832.00;;;;5032878;28;20206;-46
2023/01/16 01:48:11;;;;;;;1.20;1.13;;;15.50;65.60;16.40;98823.00;;;;5033245;28;20189;-45
2023/01/16 01:50:47;;;;;;;2.00;1.43;;;15.50;65.60;16.30;98792.00;;;;5033054;28;20175;-46
2023/01/16 01:53:27;;;;;;;1.10;1.00;;;15.40;65.60;16.30;98810.00;;;;5031257;28;20241;-45
2023/01/16 01:55:53;;;;;;;1.40;1.30;;;15.50;65.70;16.30;98808.00;;;;5031905;28;20158;-46
2023/01/16 01:58:21;;;;;;;1.20;1.10;;;15.50;65.70;16.30;98805.00;;;;5032991;28;20534;-46
2023/01/16 02:00:48;;;;;;;1.07;0.97;;;15.40;65.60;16.30;98801.00;;;;5031631;28;20167;-45
2023/01/16 02:03:17;;;;;;;1.83;1.47;;;15.40;65.60;16.30;98782.00;;;;5031280;28;20167;-47
2023/01/16 02:05:48;;;;;;;1.13;1.03;;;15.40;65.60;16.30;98784.00;;;;5030696;28;20207;-47
2023/01/16 02:08:15;;;;;;;1.50;1.27;;;15.40;65.60;16.30;98772.00;;;;5031498;28;20195;-46
2023/01/16 02:11:08;;;;;;;1.30;1.20;;;15.40;65.70;16.30;98772.00;;;;5031013;28;20171;-47
2023/01/16 02:13:36;;;;;;;1.30;1.20;;;15.40;65.70;16.20;98771.00;;;;5028805;28;20179;-47
2023/01/16 02:21:48;;;;;;;1.30;1.20;;;15.30;65.70;16.20;98745.00;;;;5030571;28;20193;-47
2023/01/16 02:24:52;;;;;;;1.23;1.13;;;15.40;65.80;16.20;98744.00;;;;5030843;28;20167;-47
2023/01/16 02:28:06;;;;;;;1.40;1.30;;;15.30;65.70;16.20;98736.00;;;;5030639;28;20198;-47
2023/01/16 02:31:16;;;;;;;1.30;1.20;;;15.30;65.70;16.10;98719.00;;;;5030733;28;20163;-46
2023/01/16 02:33:47;;;;;;;1.33;1.23;;;15.30;65.70;16.10;98712.00;;;;5030998;28;20529;-46
2023/01/16 02:36:26;;;;;;;1.10;1.10;;;15.20;65.60;16.10;98703.00;;;;5035671;28;20262;-45
2023/01/16 02:39:18;;;;;;;0.83;0.80;;;15.30;65.80;16.10;98708.00;;;;5034024;28;20254;-46
2023/01/16 02:42:23;;;;;;;1.17;1.17;;;15.20;65.70;16.10;98701.00;;;;5029880;28;20155;-46
2023/01/16 02:45:25;;;;;;;1.10;1.00;;;15.20;65.70;16.10;98699.00;;;;5029574;28;20155;-46
2023/01/16 02:48:21;;;;;;;1.50;1.40;;;15.20;65.70;16.10;98685.00;;;;5030927;28;20568;-46
2023/01/16 02:51:03;;;;;;;0.97;0.97;;;15.20;65.70;16.00;98682.00;;;;5030241;28;20531;-45
2023/01/16 02:54:03;;;;;;;0.93;0.83;;;15.20;65.70;16.00;98670.00;;;;5030006;28;20249;-46
2023/01/16 02:57:04;;;;;;;1.20;1.10;;;15.20;65.70;16.00;98667.00;;;;5030629;28;20279;-46
2023/01/16 02:59:30;;;;;;;1.40;1.30;;;15.20;65.60;16.00;98658.00;;;;5015833;28;20249;-45
2023/01/16 03:01:57;;;;;;;1.30;1.20;;;15.20;65.60;16.00;98647.00;;;;5029590;28;20178;-47
2023/01/16 03:04:49;;;;;;;1.23;1.13;;;15.10;65.60;16.00;98648.00;;;;5031305;28;20167;-47
2023/01/16 03:07:23;;;;;;;1.33;1.23;;;15.20;65.70;16.00;98644.00;;;;5031437;28;20209;-46
2023/01/16 03:10:05;;;;;;;1.20;1.10;;;15.20;65.70;16.00;98611.00;;;;5030054;28;20158;-45
2023/01/16 03:13:12;;;;;;;1.30;1.20;;;15.10;65.60;16.00;98637.00;;;;5029314;28;20166;-46
2023/01/16 03:16:30;;;;;;;1.13;0.97;;;15.10;65.60;15.90;98576.00;;;;5029709;28;20175;-47
2023/01/16 03:19:28;;;;;;;1.07;1.00;;;15.10;65.60;15.90;98604.00;;;;5027105;28;20682;-46
2023/01/16 03:22:27;;;;;;;1.10;1.00;;;15.10;65.60;15.90;98605.00;;;;5029657;28;20171;-47
2023/01/16 03:25:39;;;;;;;0.87;0.87;;;15.10;65.60;15.90;98576.00;;;;5029687;28;20242;-46
2023/01/16 03:28:11;;;;;;;1.10;1.00;;;15.00;65.60;15.90;98578.00;;;;5029452;28;20225;-47
2023/01/16 03:31:23;;;;;;;0.93;0.80;;;15.00;65.70;15.90;98571.00;;;;5029681;28;20171;-46
2023/01/16 03:34:20;;;;;;;1.20;1.10;;;15.00;65.60;15.80;98559.00;;;;5029566;28;20178;-47
2023/01/16 03:36:56;;;;;;;1.17;0.80;;;15.00;65.70;15.80;98566.00;;;;5028473;28;20199;-46
2023/01/16 03:39:32;;;;;;;1.13;1.03;;;15.00;65.60;15.80;98551.00;;;;5029710;28;20546;-46
2023/01/16 03:42:01;;;;;;;1.10;1.00;;;15.00;65.60;15.80;98551.00;;;;5028627;28;20208;-45
2023/01/16 03:44:30;;;;;;;1.07;1.00;;;15.00;65.80;15.80;98543.00;;;;5032319;28;20163;-45
2023/01/16 03:46:56;;;;;;;1.10;0.97;;;15.00;65.80;15.80;98541.00;;;;5034945;28;20564;-45
2023/01/16 03:49:34;;;;;;;1.30;1.20;;;15.00;65.70;15.80;98527.00;;;;5039857;28;20179;-45
2023/01/16 03:52:02;;;;;;;1.10;1.03;;;14.90;65.60;15.80;98517.00;;;;5036350;28;20198;-46
2023/01/16 03:54:40;;;;;;;1.07;0.80;;;15.00;65.70;15.80;98509.00;;;;5029430;28;20167;-46
2023/01/16 03:57:28;;;;;;;0.83;0.83;;;15.00;65.70;15.80;98512.00;;;;5030392;28;20222;-46
2023/01/16 03:59:53;;;;;;;0.90;0.90;;;14.90;65.50;15.80;98505.00;;;;5029573;28;20651;-46
2023/01/16 04:02:54;;;;;;;1.20;1.10;;;14.90;65.60;15.80;98510.00;;;;5030185;28;20174;-46
2023/01/16 04:05:31;;;;;;;0.93;0.93;;;14.90;65.60;15.80;98494.00;;;;5029713;28;20714;-45
2023/01/16 04:08:00;;;;;;;0.90;0.90;;;14.90;65.60;15.70;98493.00;;;;5029186;28;20249;-46
2023/01/16 04:10:36;;;;;;;1.10;1.00;;;14.90;65.70;15.70;98483.00;;;;5028800;28;20180;-47
2023/01/16 04:13:15;;;;;;;0.70;0.70;;;14.90;65.80;15.70;98474.00;;;;5019988;28;20209;-47
2023/01/16 04:15:44;;;;;;;0.90;0.90;;;14.90;65.80;15.70;98466.00;;;;5032447;28;20508;-47
2023/01/16 04:18:10;;;;;;;1.20;1.10;;;14.80;65.60;15.70;98457.00;;;;5028822;28;20199;-46
2023/01/16 04:20:36;;;;;;;0.83;0.83;;;14.80;65.60;15.70;98442.00;;;;5012064;28;20623;-47
2023/01/16 04:23:02;;;;;;;1.23;1.07;;;14.80;65.60;15.70;98430.00;;;;5027892;28;20224;-46
2023/01/16 04:25:27;;;;;;;0.80;0.80;;;14.80;65.60;15.70;98419.00;;;;5029465;28;20707;-51
2023/01/16 04:27:53;;;;;;;0.97;0.97;;;14.80;66.50;15.70;98415.00;;;;5028126;28;20226;-49
2023/01/16 04:30:19;;;;;;;2.27;1.20;;;14.80;66.10;15.70;98404.00;;;;5029750;28;20195;-46
2023/01/16 04:32:44;;;;;;;1.93;0.70;;;14.80;66.20;15.70;98399.00;;;;5029096;28;20254;-46
2023/01/16 04:35:11;;;;;;;1.10;1.00;;;14.80;66.20;15.70;98397.00;;;;5029448;28;20591;-46
2023/01/16 04:37:37;;;;;;;2.63;1.30;;;14.80;65.90;15.70;98385.00;;;;5029164;28;20202;-45
2023/01/16 04:40:03;;;;;;;1.40;1.30;;;14.80;65.90;15.60;98373.00;;;;5029575;28;20171;-46
2023/01/16 04:42:29;;;;;;;1.27;1.13;;;14.80;65.90;15.60;98364.00;;;;5029318;28;20182;-47
2023/01/16 04:44:55;;;;;;;2.30;1.07;;;14.70;65.70;15.60;98363.00;;;;5029926;28;20179;-46
2023/01/16 04:47:21;;;;;;;1.67;1.00;;;14.70;65.70;15.60;98350.00;;;;5029694;28;20575;-46
2023/01/16 04:49:46;;;;;;;2.10;1.30;;;14.70;65.70;15.60;98345.00;;;;5029914;28;20194;-46
2023/01/16 04:52:12;;;;;;;3.07;1.27;;;14.70;65.70;15.60;98329.00;;;;5028865;28;20616;-46
2023/01/16 04:54:38;;;;;;;2.00;1.30;;;14.70;65.60;15.60;98328.00;;;;5030570;28;20171;-46
2023/01/16 04:57:04;;;;;;;2.33;1.30;;;14.70;65.60;15.60;98317.00;;;;5030080;28;20187;-46
2023/01/16 04:59:29;;;;;;;3.77;1.40;;;14.60;65.40;15.60;98301.00;;;;5028650;28;20179;-46
2023/01/16 05:01:55;;;;;;;1.80;0.97;;;14.70;65.50;15.60;98291.00;;;;5029877;28;20171;-46
2023/01/16 05:04:21;;;;;;;1.90;1.10;;;14.70;65.40;15.60;98285.00;;;;5030012;28;20186;-46
2023/01/16 05:06:46;;;;;;;1.20;1.10;;;14.70;65.40;15.50;98282.00;;;;5028254;28;20237;-47
2023/01/16 05:09:12;;;;;;;1.20;1.10;;;14.60;65.20;15.50;98275.00;;;;5029250;28;20174;-46
2023/01/16 05:11:38;;;;;;;2.00;1.07;;;14.60;65.10;15.50;98270.00;;;;5029528;28;20174;-47
2023/01/16 05:14:12;;;;;;;1.43;1.30;;;14.60;65.10;15.50;98269.00;;;;5029429;28;20182;-49
2023/01/16 05:16:41;;;;;;;1.20;1.10;;;14.60;65.00;15.50;98261.00;;;;5029406;28;20189;-46
2023/01/16 05:19:07;;;;;;;1.20;1.10;;;14.60;65.00;15.50;98265.00;;;;5029261;28;20832;-47
2023/01/16 05:21:33;;;;;;;2.73;1.30;;;14.60;64.90;15.50;98243.00;;;;5032645;28;20214;-46
2023/01/16 05:23:58;;;;;;;2.50;1.00;;;14.60;64.90;15.50;98193.00;;;;5033558;28;20170;-46
2023/01/16 05:26:24;;;;;;;3.27;1.20;;;14.50;64.60;15.40;98230.00;;;;5028244;28;20195;-46
2023/01/16 05:28:50;;;;;;;3.07;1.20;;;14.50;64.60;15.40;98226.00;;;;5029735;28;20209;-45
2023/01/16 05:31:16;;;;;;;1.53;1.23;;;14.50;64.50;15.40;98211.00;;;;5020775;28;20184;-46
2023/01/16 05:33:41;;;;;;;1.27;1.10;;;14.50;64.50;15.40;98208.00;;;;5017332;28;20281;-45
2023/01/16 05:36:07;;;;;;;1.27;0.97;;;14.40;64.50;15.40;98201.00;;;;5010128;28;20187;-47
2023/01/16 05:38:33;;;;;;;1.47;1.13;;;14.50;64.40;15.40;98195.00;;;;5008453;28;20691;-46
2023/01/16 05:40:59;;;;;;;1.80;1.10;;;14.40;64.40;15.40;98179.00;;;;5009577;28;20168;-47
2023/01/16 05:43:25;;;;;;;3.47;1.70;;;14.40;64.40;15.40;98168.00;;;;5008539;28;20186;-49
2023/01/16 05:45:50;;;;;;;1.80;1.53;;;14.40;64.30;15.30;98160.00;;;;5008861;28;20246;-46
2023/01/16 05:48:16;;;;;;;1.43;1.27;;;14.40;64.30;15.30;98155.00;;;;5010616;28;20668;-46
2023/01/16 05:50:42;;;;;;;1.30;1.20;;;14.40;64.20;15.30;98148.00;;;;5029261;28;20183;-46
2023/01/16 05:53:07;;;;;;;2.07;1.30;;;14.40;64.10;15.30;98149.00;;;;5010439;28;20183;-46
2023/01/16 05:55:45;;;;;;;1.83;1.40;;;14.40;64.20;15.30;98146.00;;;;5028386;28;20187;-46
2023/01/16 05:58:11;;;;;;;1.27;1.17;;;14.40;64.20;15.30;98140.00;;;;5021635;28;20205;-46
2023/01/16 06:00:38;;;;;;;2.07;1.17;;;14.40;64.00;15.30;98141.00;;;;5028500;28;20186;-47
2023/01/16 06:03:04;;;;;;;1.30;1.00;;;14.40;64.10;15.30;98141.00;;;;5028130;28;20246;-47
2023/01/16 06:05:30;;;;;;;1.47;1.00;;;14.40;63.90;15.30;98128.00;;;;5029170;28;20557;-50
2023/01/16 06:07:56;;;;;;;1.77;1.17;;;14.30;63.60;15.30;98118.00;;;;5028633;28;20210;-47
2023/01/16 06:10:22;;;;;;;1.40;1.20;;;14.40;63.80;15.20;98119.00;;;;5028979;28;20182;-46
2023/01/16 06:12:48;;;;;;;3.57;1.10;;;14.30;63.70;15.20;98122.00;;;;5027902;28;20167;-47
2023/01/16 06:15:14;;;;;;;1.70;1.10;;;14.30;63.90;15.20;98119.00;;;;5027601;28;20163;-46
2023/01/16 06:17:40;;;;;;;2.43;1.30;;;14.30;63.80;15.20;98112.00;;;;5029699;28;20222;-47
2023/01/16 06:20:06;;;;;;;1.90;1.57;;;14.30;63.80;15.20;98109.00;;;;5032776;28;20182;-47
2023/01/16 06:22:31;;;;;;;2.20;1.40;;;14.30;63.70;15.20;98096.00;;;;5030454;28;20195;-47
2023/01/16 06:24:57;;;;;;;1.13;0.93;;;14.30;63.70;15.20;98097.00;;;;5032518;28;20171;-46
2023/01/16 06:27:23;;;;;;;1.67;1.20;;;14.30;64.50;15.20;98098.00;;;;5032056;28;20230;-46
2023/01/16 06:29:49;;;;;;;1.50;1.03;;;14.20;63.40;15.20;98092.00;;;;5032533;28;20254;-47
2023/01/16 06:32:16;;;;;;;2.70;1.30;;;14.20;63.50;15.20;98071.00;;;;5032416;28;20250;-46
2023/01/16 06:34:42;;;;;;;2.40;1.10;;;14.20;63.20;15.20;98066.00;;;;5042550;28;20179;-46
2023/01/16 06:37:08;;;;;;;2.90;1.20;;;14.20;63.30;15.10;98061.00;;;;5041485;28;20195;-46
2023/01/16 06:39:34;;;;;;;1.47;1.10;;;14.10;63.20;15.10;98052.00;;;;5032689;28;20581;-47
2023/01/16 06:42:00;;;;;;;1.77;1.30;;;14.10;63.10;15.10;98035.00;;;;5031907;28;20236;-47
2023/01/16 06:44:26;;;;;;;1.57;1.00;;;14.20;63.30;15.10;98027.00;;;;5032149;28;20209;-46
2023/01/16 06:46:51;;;;;;;1.50;0.97;;;14.20;63.20;15.10;98018.00;;;;5032230;28;20211;-48
2023/01/16 06:49:17;;;;;;;0.97;0.93;;;14.10;63.10;15.10;98008.00;;;;5032184;28;20170;-46
2023/01/16 06:51:43;;;;;;;1.50;1.00;;;14.20;63.20;15.10;98003.00;;;;5032160;28;20174;-46
2023/01/16 06:54:09;;;;;;;1.43;1.17;;;14.10;63.10;15.00;97991.00;;;;5032462;28;20728;-46
2023/01/16 06:56:35;;;;;;;1.17;1.07;;;14.10;63.10;15.00;97988.00;;;;5032663;28;20277;-46
2023/01/16 06:59:01;;;;;;;1.23;1.00;;;14.10;63.30;15.00;97986.00;;;;5032203;28;20375;-46
2023/01/16 07:01:27;;;;;;;0.90;0.90;;;14.10;63.10;15.00;97971.00;;;;5032161;28;20175;-46
2023/01/16 07:03:52;;;;;;;1.03;1.00;;;14.10;63.10;15.00;97960.00;;;;5032347;28;20182;-46
2023/01/16 07:06:18;;;;;;;1.50;1.23;;;14.10;63.10;15.00;97963.00;;;;5031765;28;20557;-46
2023/01/16 07:08:44;;;;;;;1.20;0.90;;;14.00;63.10;15.00;97964.00;;;;5032111;28;20163;-46
2023/01/16 07:11:10;;;;;;;1.50;1.20;;;14.00;63.10;14.80;97962.00;;;;5032186;28;20179;-46
2023/01/16 07:13:36;;;;;;;1.00;0.90;;;14.00;63.10;15.00;97957.00;;;;5031812;28;20167;-46
2023/01/16 07:24:34;;;;;;;1.03;0.90;;;14.00;63.00;14.90;97897.00;;;;5032268;28;20241;-46
2023/01/16 07:27:02;;;;;;;2.57;1.30;;;13.90;62.90;14.90;97888.00;;;;4998236;28;20298;-46
2023/01/16 07:29:29;;;;;;;1.83;1.00;;;14.00;63.00;14.90;97891.00;;;;5014408;28;20198;-46
2023/01/16 07:31:55;;;;;;;1.20;1.10;;;13.90;62.90;14.80;97879.00;;;;5032926;28;20632;-49
2023/01/16 07:34:22;;;;;;;1.90;1.00;;;14.00;63.00;14.80;97874.00;;;;5020118;28;20250;-46
2023/01/16 07:36:47;;;;;;;2.27;1.40;;;13.90;62.90;14.90;97863.00;;;;5033466;28;20206;-46
2023/01/16 07:39:13;;;;;;;1.33;1.20;;;13.90;62.90;14.80;97850.00;;;;5031416;28;20175;-46
2023/01/16 07:41:39;;;;;;;1.20;1.10;;;13.90;62.90;14.80;97843.00;;;;5031036;28;20195;-46
2023/01/16 07:44:06;;;;;;;1.17;1.07;;;13.90;62.80;14.80;97839.00;;;;5031004;28;20681;-46
2023/01/16 07:46:31;;;;;;;1.20;1.10;;;13.90;62.80;14.80;97831.00;;;;5031782;28;20237;-46
2023/01/16 07:48:57;;;;;;;1.03;1.00;;;13.90;62.90;14.80;97806.00;;;;5031053;28;20190;-46
2023/01/16 07:51:23;;;;;;;1.33;1.17;;;13.90;62.60;14.80;97810.00;;;;5030665;28;20171;-47
2023/01/16 07:53:49;;;;;;;1.67;1.20;;;13.90;62.50;14.80;97801.00;;;;5030918;28;20210;-46
2023/01/16 07:56:15;;;;;;;1.20;1.10;;;13.90;62.50;14.70;97797.00;;;;5031273;28;20199;-46
2023/01/16 07:58:42;;;;;;;1.30;1.10;;;13.90;62.50;14.70;97789.00;;;;5031005;28;20250;-46
2023/01/16 08:01:08;;;;;;;1.37;1.27;;;13.90;62.40;14.70;97775.00;;;;5030811;28;20549;-47
2023/01/16 08:03:34;;;;;;;1.47;1.37;;;13.90;62.30;14.70;97776.00;;;;5030638;28;20254;-47
2023/01/16 08:06:02;;;;;;;1.17;1.07;;;13.80;62.30;14.70;97787.00;;;;5030799;28;20210;-46
2023/01/16 08:08:28;;;;;;;1.77;1.40;;;13.80;62.10;14.70;97768.00;;;;5031374;28;20229;-45
2023/01/16 08:10:58;;;;;;;2.20;1.60;;;13.80;62.10;14.70;97759.00;;;;5030941;28;20174;-47
2023/01/16 08:13:24;;;;;;;1.20;1.10;;;13.80;62.10;14.70;97749.00;;;;5030646;28;20721;-46
2023/01/16 08:15:50;;;;;;;1.90;1.13;;;13.80;62.20;14.60;97746.00;;;;5032192;28;20163;-47
2023/01/16 08:18:18;;;;;;;1.30;1.20;;;13.80;62.10;14.60;97745.00;;;;5036394;28;20199;-46
2023/01/16 08:20:44;;;;;;;1.30;1.20;;;13.80;62.10;14.60;97731.00;;;;5039832;28;20183;-46
2023/01/16 08:23:11;;;;;;;2.20;1.57;;;13.80;62.10;14.60;97723.00;;;;5037225;28;20206;-46
2023/01/16 08:25:37;;;;;;;3.00;1.50;;;13.70;61.90;14.60;97713.00;;;;5030433;28;20194;-47
2023/01/16 08:28:02;;;;;;;1.50;1.40;;;13.70;62.00;14.60;97709.00;;;;5031146;28;20187;-47
2023/01/16 08:30:29;;;;;;;3.07;1.20;;;13.70;61.90;14.60;97710.00;;;;5030544;28;20712;-47
2023/01/16 08:33:01;;;;;;;1.10;1.00;;;13.70;61.70;14.60;97706.00;;;;5030372;28;20254;-47
2023/01/16 08:35:27;;;;;;;1.40;1.30;;;13.70;61.90;14.60;97697.00;;;;5030135;28;20274;-46
2023/01/16 08:37:53;;;;;;;1.90;1.43;;;13.70;61.80;14.60;97701.00;;;;5029746;28;20705;-47
2023/01/16 08:40:19;;;;;;;1.37;1.27;;;13.70;61.80;14.60;97688.00;;;;5030378;28;20231;-46
2023/01/16 08:51:23;;;;;;;2.27;1.40;;;13.60;61.70;14.50;97655.00;;;;5029638;28;20163;-46
2023/01/16 08:53:50;;;;;;;2.83;1.33;;;13.70;61.70;14.50;97666.00;;;;5012976;28;20947;-51
2023/01/16 08:56:16;;;;;;;2.77;1.57;;;13.60;61.50;14.50;97664.00;;;;5028707;28;20170;-46
2023/01/16 08:58:41;;;;;;;1.47;1.37;;;13.60;61.70;14.50;97653.00;;;;5029716;28;20229;-46
2023/01/16 09:01:07;;;;;;;1.60;1.43;;;13.60;61.40;14.50;97668.00;;;;5029410;28;20183;-45
2023/01/16 09:03:34;;;;;;;3.50;1.60;;;13.60;61.30;14.50;97652.00;;;;5011989;28;20772;-46
2023/01/16 09:06:00;;;;;;;3.37;1.40;;;13.70;61.50;14.50;97655.00;;;;5029726;28;20279;-46
2023/01/16 09:08:26;;;;;;;4.07;1.70;;;13.60;61.50;14.50;97640.00;;;;5027063;28;20248;-46
2023/01/16 09:13:48;;;;;;;1.80;1.57;;;13.70;62.20;14.50;97634.00;;;;5029482;28;20162;-46
2023/01/16 09:16:19;;;;;;;2.77;1.40;;;13.70;62.30;14.60;97638.00;;;;5029170;28;20224;-46
2023/01/16 09:18:45;;;;;;;3.97;1.50;;;13.80;62.70;14.60;97635.00;;;;5032307;28;20576;-46
2023/01/16 09:21:11;;;;;;;2.23;1.67;;;13.80;62.70;14.70;97635.00;;;;5043908;28;20183;-46
2023/01/16 09:23:37;;;;;;;8.00;1.70;;;14.00;62.70;14.70;97629.00;;;;5041381;28;20821;-46
2023/01/16 09:26:02;;;;;;;38.33;3.77;;;14.00;62.70;14.80;97609.00;;;;5029499;28;20245;-46
2023/01/16 09:28:28;;;;;;;14.37;2.80;;;14.10;63.10;14.90;97610.00;;;;5028691;28;20233;-46
2023/01/16 09:30:54;;;;;;;14.80;2.60;;;14.20;63.20;15.00;97608.00;;;;5029621;28;20175;-46
2023/01/16 09:33:20;;;;;;;11.43;2.10;;;14.20;63.10;15.00;97601.00;;;;5028517;28;20246;-45
2023/01/16 09:35:46;;;;;;;9.50;2.00;;;14.40;63.30;15.10;97598.00;;;;5028154;28;20611;-46
2023/01/16 09:38:11;;;;;;;12.47;2.50;;;14.40;63.30;15.20;97605.00;;;;5030544;28;20191;-45
2023/01/16 09:40:37;;;;;;;9.27;2.20;;;14.50;63.20;15.30;97593.00;;;;5037768;28;20675;-45
2023/01/16 09:43:35;;;;;;;8.37;2.53;;;14.60;63.20;15.40;97586.00;;;;5036691;28;20175;-46
2023/01/16 09:46:06;;;;;;;4.23;2.17;;;14.70;63.20;15.50;97587.00;;;;5029677;28;20202;-46
2023/01/16 09:48:34;;;;;;;5.80;1.97;;;14.80;63.30;15.60;97574.00;;;;5028870;28;20741;-46
2023/01/16 09:51:32;;;;;;;8.50;2.03;;;14.90;63.20;15.70;97579.00;;;;5029550;28;20253;-46
2023/01/16 09:59:49;;;;;;;8.23;2.03;;;15.10;63.30;15.90;97579.00;;;;5032912;28;20181;-46
2023/01/16 10:02:26;;;;;;;3.70;1.70;;;15.20;63.30;16.00;97558.00;;;;5032332;28;20656;-45
2023/01/16 10:04:53;;;;;;;5.47;1.87;;;15.30;63.20;16.10;97563.00;;;;5033370;28;20185;-46
2023/01/16 10:07:58;;;;;;;4.37;1.60;;;15.30;63.20;16.20;97566.00;;;;5032390;28;20302;-47
2023/01/16 10:10:45;;;;;;;3.77;1.83;;;15.40;63.20;16.20;97581.00;;;;5032300;28;20249;-46
2023/01/16 10:13:31;;;;;;;5.13;1.60;;;15.40;63.00;16.30;97558.00;;;;5032024;28;20164;-46
2023/01/16 10:16:12;;;;;;;4.70;1.67;;;15.50;63.20;16.30;97560.00;;;;5031750;28;20234;-46
2023/01/16 10:18:50;;;;;;;3.13;1.77;;;15.60;63.10;16.40;97555.00;;;;5033134;28;20573;-46
2023/01/16 10:21:27;;;;;;;3.27;1.60;;;15.60;63.10;16.40;97547.00;;;;5031469;28;20183;-49
2023/01/16 10:24:00;;;;;;;3.50;1.60;;;15.60;63.10;16.50;97530.00;;;;5033064;28;20171;-46
2023/01/16 10:26:30;;;;;;;3.00;1.73;;;15.60;63.10;16.50;97518.00;;;;5031456;28;20272;-46
2023/01/16 10:29:33;;;;;;;5.17;1.70;;;15.70;63.20;16.60;97517.00;;;;5031451;28;20710;-46
2023/01/16 10:32:09;;;;;;;2.73;1.40;;;15.70;63.10;16.60;97516.00;;;;5031624;28;20662;-46
2023/01/16 10:35:03;;;;;;;3.97;1.70;;;15.80;63.30;16.60;97512.00;;;;5031365;28;20517;-46
2023/01/16 10:37:30;;;;;;;4.63;1.47;;;15.80;63.30;16.60;97489.00;;;;5031490;28;20206;-46
2023/01/16 10:39:56;;;;;;;3.03;1.83;;;15.80;63.30;16.70;97502.00;;;;5032949;28;20163;-46
2023/01/16 10:50:58;;;;;;;2.87;1.70;;;15.90;63.10;16.80;97476.00;;;;5031923;28;20155;-47
2023/01/16 10:53:24;;;;;;;2.30;1.43;;;15.90;63.10;16.80;97485.00;;;;5031262;28;20540;-46
2023/01/16 10:55:52;;;;;;;3.73;1.70;;;15.90;63.10;16.80;97462.00;;;;5031063;28;20221;-46
2023/01/16 10:58:34;;;;;;;5.53;1.70;;;15.90;63.30;16.80;97481.00;;;;5031456;28;20860;-46
2023/01/16 11:01:20;;;;;;;9.63;1.80;;;16.00;63.70;16.80;97453.00;;;;5030229;28;20232;-46
2023/01/16 11:03:53;;;;;;;5.00;1.90;;;16.00;63.70;16.80;97448.00;;;;5030595;28;20180;-46
2023/01/16 11:06:23;;;;;;;5.07;1.80;;;16.00;63.70;16.90;97458.00;;;;5030411;28;20189;-45
2023/01/16 11:09:02;;;;;;;3.47;1.60;;;16.00;63.90;16.90;97446.00;;;;5030007;28;20665;-46
2023/01/16 11:20:30;;;;;;;3.73;1.50;;;16.10;63.80;17.00;97422.00;;;;5031216;28;20349;-48
2023/01/16 11:23:09;;;;;;;3.23;1.40;;;16.10;63.70;17.00;97419.00;;;;5029930;28;20161;-46
2023/01/16 11:25:34;;;;;;;1.87;1.23;;;16.10;63.70;17.00;97414.00;;;;5030561;28;20274;-48
2023/01/16 11:28:02;;;;;;;3.83;1.37;;;16.10;63.40;17.00;97404.00;;;;5030442;28;20266;-47
2023/01/16 11:30:43;;;;;;;2.90;1.30;;;16.10;63.30;17.00;97404.00;;;;5030127;28;20620;-48
2023/01/16 11:33:22;;;;;;;4.37;1.47;;;16.10;63.20;17.00;97390.00;;;;5030170;28;20160;-46
2023/01/16 11:35:58;;;;;;;3.30;1.40;;;16.20;63.60;17.00;97395.00;;;;5029981;28;20173;-45
2023/01/16 11:38:25;;;;;;;5.23;1.67;;;16.20;63.60;17.00;97383.00;;;;5029210;28;20206;-46
2023/01/16 11:40:52;;;;;;;3.47;1.33;;;16.20;63.50;17.00;97368.00;;;;5030102;28;20160;-46
2023/01/16 11:46:27;;;;;;;5.63;1.40;;;16.30;63.30;16.90;97353.00;;;;5029908;28;20199;-46
2023/01/16 11:48:55;;;;;;;3.40;1.30;;;16.20;63.20;17.10;97354.00;;;;5025688;28;20239;-46
2023/01/16 11:51:26;;;;;;;1.50;1.30;;;16.30;63.20;17.10;97345.00;;;;5025798;28;20198;-46
2023/01/16 11:53:52;;;;;;;3.13;1.50;;;16.30;63.10;17.10;97349.00;;;;5028227;28;20187;-46
2023/01/16 11:57:01;;;;;;;1.77;1.20;;;16.20;62.90;17.10;97349.00;;;;5031120;28;20168;-45
2023/01/16 12:00:14;;;;;;;1.93;1.20;;;16.30;63.00;16.90;97340.00;;;;5034877;28;20196;-47
2023/01/16 12:03:26;;;;;;;1.90;1.30;;;16.30;63.10;17.10;97316.00;;;;4995680;28;20197;-47
2023/01/16 12:06:07;;;;;;;2.00;0.93;;;16.30;63.40;17.10;97321.00;;;;5022348;28;20562;-47